Time;durP1;ratioP1;P1;durP2;ratioP2;P2;SDS_P1;SDS_P2;PMS_P1;PMS_P2;Temp;Humidity;BMP_temperature;BMP_pressure;BME280_temperature;BME280_humidity;BME280_pressure;Samples;Min_cycle;Max_cycle;Signal;HPM_P1;HPM_P2
2021/06/21 00:02:00;;;;;;;8.75;3.95;;;;;;;12.87;78.49;100987.91;4954286;28;20030;-84
2021/06/21 00:04:26;;;;;;;7.80;4.30;;;;;;;12.86;77.86;100991.63;4953300;28;20026;-83
2021/06/21 00:06:51;;;;;;;5.85;3.65;;;;;;;12.81;77.65;100987.78;4964167;28;20034;-86
2021/06/21 00:09:17;;;;;;;7.70;3.65;;;;;;;12.63;77.73;100961.19;4969024;28;20031;-83
2021/06/21 00:11:42;;;;;;;5.28;3.65;;;;;;;12.60;77.44;100962.41;4968767;28;20025;-84
2021/06/21 00:14:08;;;;;;;7.70;3.42;;;;;;;12.70;77.04;100989.09;4952103;28;20030;-83
2021/06/21 00:16:33;;;;;;;9.07;3.83;;;;;;;12.71;77.54;100999.69;4962325;28;20034;-83
2021/06/21 00:18:59;;;;;;;8.32;3.30;;;;;;;12.80;77.20;101003.16;4954839;28;20446;-83
2021/06/21 00:21:24;;;;;;;6.43;3.53;;;;;;;12.72;77.34;100995.97;4968622;28;20132;-85
2021/06/21 00:23:50;;;;;;;4.57;3.20;;;;;;;12.68;76.98;101002.78;4955903;28;20175;-85
2021/06/21 00:26:15;;;;;;;7.07;3.35;;;;;;;12.63;76.94;100993.56;4970163;28;20129;-83
2021/06/21 00:28:40;;;;;;;5.40;3.22;;;;;;;12.67;76.89;101008.34;4954568;28;20033;-84
2021/06/21 00:31:06;;;;;;;6.60;3.33;;;;;;;12.63;77.13;101012.44;4981538;28;20078;-83
2021/06/21 00:33:31;;;;;;;8.15;3.60;;;;;;;12.44;77.13;100986.84;4954025;28;20045;-83
2021/06/21 00:35:57;;;;;;;6.20;3.63;;;;;;;12.47;76.80;100999.94;4966089;28;20112;-84
2021/06/21 00:38:22;;;;;;;5.57;2.92;;;;;;;12.40;76.50;100985.50;4983244;28;20038;-84
2021/06/21 00:40:48;;;;;;;6.85;3.28;;;;;;;12.56;76.73;101015.03;4962700;28;20030;-83
2021/06/21 00:43:13;;;;;;;5.55;3.10;;;;;;;12.59;76.73;101033.53;4948437;28;20018;-83
2021/06/21 00:45:39;;;;;;;6.25;3.50;;;;;;;12.45;76.89;101020.84;4964684;28;20034;-83
2021/06/21 00:48:05;;;;;;;7.45;3.55;;;;;;;12.43;76.00;101025.59;4970147;28;20097;-84
2021/06/21 00:50:30;;;;;;;7.95;3.28;;;;;;;12.36;76.80;101020.09;4954229;28;20031;-83
2021/06/21 00:52:59;;;;;;;7.25;3.20;;;;;;;12.26;77.15;101008.72;4949785;28;20030;-83
2021/06/21 00:55:26;;;;;;;4.70;3.08;;;;;;;12.29;77.01;101024.53;4961279;28;20681;-83
2021/06/21 00:57:51;;;;;;;5.22;2.92;;;;;;;12.15;76.87;101012.69;4981307;28;20037;-84
2021/06/21 01:00:20;;;;;;;4.68;3.05;;;;;;;12.32;76.66;101025.00;4952316;28;20034;-85
2021/06/21 01:02:46;;;;;;;6.20;3.05;;;;;;;12.27;76.88;101027.38;4951535;28;20030;-83
2021/06/21 01:05:26;;;;;;;5.95;2.83;;;;;;;12.28;76.80;101033.66;4964015;28;20022;-84
2021/06/21 01:07:52;;;;;;;6.25;3.17;;;;;;;12.22;76.20;101029.78;4968069;28;20034;-84
2021/06/21 01:10:19;;;;;;;4.75;2.67;;;;;;;12.18;76.25;101043.81;4964559;28;20026;-84
2021/06/21 01:12:48;;;;;;;5.95;3.30;;;;;;;12.17;76.03;101034.03;4962674;28;20181;-83
2021/06/21 01:15:24;;;;;;;4.88;2.53;;;;;;;12.13;75.87;101020.09;4962821;28;20557;-83
2021/06/21 01:17:55;;;;;;;5.43;2.70;;;;;;;12.15;75.66;101036.09;4965381;28;20030;-85
2021/06/21 01:20:41;;;;;;;3.53;2.33;;;;;;;12.13;75.58;101038.97;4979940;28;20022;-83
2021/06/21 01:23:30;;;;;;;5.82;2.67;;;;;;;12.09;75.42;101040.31;4969555;28;20189;-84
2021/06/21 01:26:20;;;;;;;4.03;2.33;;;;;;;12.13;75.19;101038.97;4981000;28;20453;-83
2021/06/21 01:28:59;;;;;;;5.43;2.03;;;;;;;12.10;74.64;101044.72;4962974;28;20049;-84
2021/06/21 01:31:29;;;;;;;3.83;2.35;;;;;;;12.10;74.64;101042.03;4954491;28;20415;-85
2021/06/21 01:33:55;;;;;;;6.07;2.10;;;;;;;11.97;74.24;101031.00;4969421;28;20034;-84
2021/06/21 01:36:22;;;;;;;6.80;2.38;;;;;;;11.90;74.35;101020.06;4970448;28;20034;-84
2021/06/21 01:38:55;;;;;;;4.50;2.60;;;;;;;11.93;74.49;101035.03;4964974;28;20380;-85
2021/06/21 01:41:34;;;;;;;3.55;2.30;;;;;;;11.97;74.49;101036.38;4974874;28;20040;-84
2021/06/21 01:44:00;;;;;;;5.30;2.00;;;;;;;11.93;74.35;101046.66;4972322;28;20029;-84
2021/06/21 01:46:31;;;;;;;4.82;2.08;;;;;;;11.93;74.36;101053.91;4965497;28;20105;-84
2021/06/21 01:49:08;;;;;;;3.45;2.28;;;;;;;11.76;74.54;101035.13;4964965;28;20033;-84
2021/06/21 01:51:35;;;;;;;4.10;2.13;;;;;;;11.87;74.31;101058.16;4985105;28;20080;-84
2021/06/21 01:54:01;;;;;;;3.83;2.00;;;;;;;11.74;74.23;101047.91;4968099;28;20057;-84
2021/06/21 01:56:31;;;;;;;4.97;2.50;;;;;;;11.81;74.15;101062.38;4975325;28;20453;-84
2021/06/21 01:58:57;;;;;;;4.18;2.20;;;;;;;11.52;74.50;101021.78;4977249;28;20044;-84
2021/06/21 02:01:23;;;;;;;4.45;2.10;;;;;;;11.57;74.57;101035.56;4975328;28;20032;-84
2021/06/21 02:03:51;;;;;;;6.40;2.58;;;;;;;11.56;74.49;101040.09;4968605;28;20023;-84
2021/06/21 02:06:18;;;;;;;4.68;2.40;;;;;;;11.75;74.99;101064.91;4951186;28;20060;-84
2021/06/21 02:08:45;;;;;;;3.20;2.00;;;;;;;11.48;74.93;101026.66;4946577;28;20030;-84
2021/06/21 02:11:11;;;;;;;3.70;2.30;;;;;;;11.52;74.71;101044.16;4979526;28;20041;-84
2021/06/21 02:13:37;;;;;;;3.08;2.30;;;;;;;11.44;74.57;101036.13;4964921;28;20022;-83
2021/06/21 02:16:04;;;;;;;3.80;2.40;;;;;;;11.59;74.85;101065.81;4967473;28;20030;-85
2021/06/21 02:18:30;;;;;;;3.05;2.15;;;;;;;11.53;74.75;101059.28;4965367;28;20056;-84
2021/06/21 02:20:55;;;;;;;3.20;2.28;;;;;;;11.61;75.11;101075.41;4963783;28;20054;-84
2021/06/21 02:23:24;;;;;;;4.03;2.08;;;;;;;11.58;75.37;101080.31;4948110;28;20443;-84
2021/06/21 02:25:51;;;;;;;4.18;2.08;;;;;;;11.51;75.12;101073.94;4958431;28;20802;-83
2021/06/21 02:28:18;;;;;;;4.10;2.35;;;;;;;11.33;75.22;101061.56;4959602;28;20026;-84
2021/06/21 02:30:45;;;;;;;3.78;1.92;;;;;;;11.57;75.14;101094.81;4965861;28;20447;-84
2021/06/21 02:33:12;;;;;;;3.55;2.00;;;;;;;11.35;74.93;101061.38;4980506;28;20024;-84
2021/06/21 02:35:38;;;;;;;3.85;2.08;;;;;;;11.50;74.93;101083.03;4950175;28;20097;-85
2021/06/21 02:38:03;;;;;;;3.10;1.98;;;;;;;11.55;74.79;101094.97;4965979;28;20026;-84
2021/06/21 02:40:29;;;;;;;4.68;2.13;;;;;;;11.37;74.87;101073.66;4963608;28;20101;-84
2021/06/21 02:42:54;;;;;;;5.47;2.05;;;;;;;11.47;75.15;101081.53;4958550;28;20063;-84
2021/06/21 02:45:20;;;;;;;4.68;1.90;;;;;;;11.53;75.11;101101.53;4945984;28;20030;-84
2021/06/21 02:47:45;;;;;;;3.42;1.85;;;;;;;11.50;74.58;101088.44;4964808;28;20415;-85
2021/06/21 02:50:11;;;;;;;3.75;1.92;;;;;;;11.55;74.97;101102.22;4978122;28;20033;-85
2021/06/21 02:52:52;;;;;;;5.13;2.30;;;;;;;11.51;75.21;101109.81;4950209;28;20029;-84
2021/06/21 02:55:22;;;;;;;3.15;1.80;;;;;;;11.52;75.16;101102.56;4961686;28;20034;-84
2021/06/21 02:58:02;;;;;;;5.57;2.22;;;;;;;11.51;75.49;101106.25;4950286;28;20038;-85
2021/06/21 03:00:28;;;;;;;4.30;2.28;;;;;;;11.52;75.34;101099.88;4967592;28;20039;-85
2021/06/21 03:02:57;;;;;;;4.47;2.58;;;;;;;11.47;75.49;101096.88;4952770;28;20133;-84
2021/06/21 03:05:24;;;;;;;2.60;1.98;;;;;;;11.43;75.64;101099.91;4979522;28;20394;-85
2021/06/21 03:07:51;;;;;;;4.25;1.98;;;;;;;11.52;75.65;101118.72;4969380;28;20169;-84
2021/06/21 03:10:18;;;;;;;3.35;2.10;;;;;;;11.52;75.88;101119.56;4949754;28;20026;-83
2021/06/21 03:12:45;;;;;;;3.83;1.90;;;;;;;11.52;76.12;101126.81;4963633;28;20074;-84
2021/06/21 03:15:13;;;;;;;6.15;2.10;;;;;;;11.45;75.87;101113.19;4953493;28;20387;-85
2021/06/21 03:17:39;;;;;;;3.75;2.08;;;;;;;11.46;76.61;101125.66;4953244;28;20057;-84
2021/06/21 03:20:05;;;;;;;3.97;2.10;;;;;;;11.42;76.02;101108.16;4963228;28;20483;-83
2021/06/21 03:22:31;;;;;;;2.35;1.85;;;;;;;11.42;76.29;101113.53;4950878;28;20026;-84
2021/06/21 03:24:56;;;;;;;4.45;2.10;;;;;;;11.47;76.55;101127.31;4962183;28;20089;-84
2021/06/21 03:27:35;;;;;;;7.07;2.40;;;;;;;11.45;76.67;101123.94;4945103;28;20091;-84
2021/06/21 03:30:03;;;;;;;4.28;1.75;;;;;;;11.39;76.65;101125.47;4972616;28;20026;-84
2021/06/21 03:32:31;;;;;;;3.60;1.70;;;;;;;11.21;76.58;101097.94;4959434;28;20133;-83
2021/06/21 03:35:00;;;;;;;2.65;1.75;;;;;;;11.41;77.24;101136.94;4967384;28;20392;-83
2021/06/21 03:37:26;;;;;;;4.07;1.73;;;;;;;11.40;77.19;101140.63;4968687;28;20026;-84
2021/06/21 03:39:52;;;;;;;4.72;1.90;;;;;;;11.32;77.27;101135.25;4966639;28;20088;-84
2021/06/21 03:42:18;;;;;;;6.05;2.08;;;;;;;11.22;77.38;101118.47;4963481;28;20031;-84
2021/06/21 03:44:43;;;;;;;3.83;1.95;;;;;;;11.34;77.43;101140.47;4961379;28;20117;-83
2021/06/21 03:47:11;;;;;;;3.08;2.00;;;;;;;11.37;77.80;101148.19;4964725;28;20034;-83
2021/06/21 03:49:37;;;;;;;4.70;2.33;;;;;;;11.36;77.79;101149.22;4964487;28;20022;-84
2021/06/21 03:52:03;;;;;;;7.90;2.25;;;;;;;11.30;77.61;101144.50;4965391;28;20026;-85
2021/06/21 03:54:28;;;;;;;4.93;1.95;;;;;;;11.41;77.68;101165.72;4967833;28;20041;-84
2021/06/21 03:56:54;;;;;;;5.63;2.10;;;;;;;11.14;77.88;101126.53;4964878;28;20034;-86
2021/06/21 03:59:20;;;;;;;5.60;2.30;;;;;;;11.37;77.83;101162.50;4951304;28;20030;-84
2021/06/21 04:01:47;;;;;;;5.70;1.98;;;;;;;11.40;77.88;101167.53;4963926;28;20073;-84
2021/06/21 04:04:12;;;;;;;3.55;1.73;;;;;;;11.30;77.79;101156.16;4969278;28;20026;-84
2021/06/21 04:06:38;;;;;;;3.72;1.75;;;;;;;11.31;77.62;101167.75;4965931;28;20449;-85
2021/06/21 04:09:04;;;;;;;3.53;2.00;;;;;;;11.23;78.14;101164.03;4967074;28;20039;-83
2021/06/21 04:11:30;;;;;;;4.90;2.30;;;;;;;11.20;78.33;101159.00;4948907;28;20965;-83
2021/06/21 04:13:57;;;;;;;3.35;1.98;;;;;;;11.13;78.51;101151.78;4952367;28;20057;-85
2021/06/21 04:16:22;;;;;;;5.45;2.17;;;;;;;11.24;78.04;101164.88;4964456;28;20022;-84
2021/06/21 04:18:48;;;;;;;4.05;2.50;;;;;;;11.41;78.60;101192.63;4984931;28;20084;-84
2021/06/21 04:21:13;;;;;;;2.47;1.98;;;;;;;11.21;78.33;101163.38;4967416;28;20026;-84
2021/06/21 04:23:38;;;;;;;4.57;2.15;;;;;;;11.08;78.48;101138.00;4955209;28;20061;-84
2021/06/21 04:26:04;;;;;;;3.65;1.98;;;;;;;11.25;78.69;101185.41;4983756;28;20546;-84
2021/06/21 04:28:29;;;;;;;6.13;2.00;;;;;;;11.30;78.89;101198.34;4967415;28;20041;-84
2021/06/21 04:30:55;;;;;;;6.88;2.10;;;;;;;11.21;78.82;101190.28;4967678;28;20430;-84
2021/06/21 04:33:20;;;;;;;2.35;1.52;;;;;;;11.18;78.72;101184.41;4965222;28;20330;-83
2021/06/21 04:35:46;;;;;;;2.75;1.80;;;;;;;11.05;78.66;101168.75;4969643;28;20030;-85
2021/06/21 04:38:11;;;;;;;4.32;1.67;;;;;;;11.13;78.45;101192.16;4958538;28;20037;-84
2021/06/21 04:40:37;;;;;;;4.35;1.92;;;;;;;11.09;78.47;101188.13;4966894;28;20594;-84
2021/06/21 04:43:03;;;;;;;4.15;1.60;;;;;;;11.15;78.63;101198.22;4954430;28;20034;-84
2021/06/21 04:45:29;;;;;;;3.58;2.00;;;;;;;11.13;77.99;101200.22;4965357;28;20143;-84
2021/06/21 04:47:54;;;;;;;3.85;1.52;;;;;;;11.08;78.18;101191.81;4965130;28;20108;-84
2021/06/21 04:50:20;;;;;;;3.30;1.60;;;;;;;11.08;77.62;101194.50;4978110;28;20511;-83
2021/06/21 04:52:47;;;;;;;6.45;1.70;;;;;;;10.91;77.02;101181.06;4969422;28;20109;-84
2021/06/21 04:55:17;;;;;;;6.63;2.00;;;;;;;11.06;76.93;101207.28;4965790;28;20022;-84
2021/06/21 04:57:43;;;;;;;3.22;1.65;;;;;;;11.05;75.88;101208.28;4967472;28;20088;-85
2021/06/21 05:00:14;;;;;;;5.40;1.80;;;;;;;11.04;75.51;101226.31;4970518;28;20137;-83
2021/06/21 05:02:40;;;;;;;3.88;1.80;;;;;;;11.02;75.38;101209.47;4952873;28;20061;-83
2021/06/21 05:05:06;;;;;;;3.67;1.90;;;;;;;10.69;74.91;101182.56;4970845;28;20046;-83
2021/06/21 05:07:32;;;;;;;3.03;1.52;;;;;;;10.66;74.50;101177.47;4967762;28;20022;-82
2021/06/21 05:09:57;;;;;;;3.53;1.80;;;;;;;10.81;74.68;101207.28;4981156;28;20068;-85
2021/06/21 05:12:23;;;;;;;6.78;2.15;;;;;;;10.95;74.15;101224.59;4950059;28;20208;-83
2021/06/21 05:14:48;;;;;;;3.85;1.85;;;;;;;10.91;74.20;101218.72;4961765;28;20030;-84
2021/06/21 05:17:14;;;;;;;3.67;1.90;;;;;;;10.89;73.48;101227.97;4969788;28;20076;-85
2021/06/21 05:19:39;;;;;;;6.90;2.20;;;;;;;10.92;73.42;101241.91;4963592;28;20030;-85
2021/06/21 05:22:06;;;;;;;5.22;2.10;;;;;;;10.80;73.41;101240.56;4950525;28;20026;-84
2021/06/21 05:24:33;;;;;;;5.97;1.80;;;;;;;10.91;73.59;101258.25;4962544;28;20458;-85
2021/06/21 05:26:58;;;;;;;3.58;1.55;;;;;;;10.78;73.76;101246.09;4962905;28;20038;-83
2021/06/21 05:29:23;;;;;;;3.67;1.77;;;;;;;10.86;73.57;101264.09;4960887;28;20023;-84
2021/06/21 05:31:49;;;;;;;6.82;2.08;;;;;;;10.70;73.90;101250.63;4967182;28;20080;-84
2021/06/21 05:34:15;;;;;;;4.47;1.77;;;;;;;10.63;73.65;101236.16;4964281;28;20642;-82
2021/06/21 05:36:40;;;;;;;7.68;2.45;;;;;;;10.86;73.99;101264.09;4966300;28;20030;-84
2021/06/21 05:39:06;;;;;;;2.95;1.88;;;;;;;10.85;74.06;101269.63;4952150;28;20031;-85
2021/06/21 05:41:31;;;;;;;3.65;1.73;;;;;;;10.88;74.29;101280.94;4967348;28;20054;-84
2021/06/21 05:43:57;;;;;;;3.97;1.85;;;;;;;10.87;74.11;101279.22;4947150;28;20376;-83
2021/06/21 05:46:22;;;;;;;5.68;2.45;;;;;;;10.72;74.03;101251.31;4975180;28;20081;-84
2021/06/21 05:48:48;;;;;;;5.57;2.10;;;;;;;10.85;73.86;101273.19;4954217;28;20589;-84
2021/06/21 05:51:13;;;;;;;5.88;2.15;;;;;;;10.83;73.90;101288.66;4950054;28;20400;-85
2021/06/21 05:53:39;;;;;;;3.25;1.58;;;;;;;10.87;73.50;101281.09;4967668;28;20569;-83
2021/06/21 05:56:04;;;;;;;4.32;2.20;;;;;;;10.78;73.41;101272.16;4964436;28;20046;-83
2021/06/21 05:58:30;;;;;;;4.07;2.15;;;;;;;10.88;73.53;101299.75;4968266;28;20030;-83
2021/06/21 06:00:55;;;;;;;6.78;2.10;;;;;;;10.89;73.80;101306.81;4969580;28;20034;-84
2021/06/21 06:03:21;;;;;;;6.45;2.50;;;;;;;10.86;74.04;101301.78;4974140;28;21011;-84
2021/06/21 06:05:46;;;;;;;6.50;2.08;;;;;;;10.80;73.92;101297.06;4966785;28;20082;-85
2021/06/21 06:08:12;;;;;;;5.97;1.80;;;;;;;10.75;73.71;101288.63;4961719;28;20037;-84
2021/06/21 06:10:37;;;;;;;3.38;1.85;;;;;;;10.77;73.76;101292.84;4959899;28;20113;-84
2021/06/21 06:13:04;;;;;;;4.35;2.20;;;;;;;10.91;73.86;101330.88;4969736;28;20133;-84
2021/06/21 06:15:30;;;;;;;6.75;2.40;;;;;;;10.91;73.47;101331.72;4966476;28;20110;-84
2021/06/21 06:17:55;;;;;;;2.60;1.77;;;;;;;10.81;73.74;101317.56;4965477;28;20109;-84
2021/06/21 06:20:21;;;;;;;3.75;2.13;;;;;;;10.90;73.81;101335.44;4982305;28;20026;-84
2021/06/21 06:22:46;;;;;;;3.75;1.95;;;;;;;10.91;73.45;101318.25;4981647;28;20450;-84
2021/06/21 06:25:15;;;;;;;3.25;2.15;;;;;;;10.89;73.49;101312.19;4950327;28;20031;-83
2021/06/21 06:27:41;;;;;;;5.32;2.40;;;;;;;11.06;73.41;101336.44;4965747;28;20029;-84
2021/06/21 06:30:09;;;;;;;3.67;2.13;;;;;;;10.89;73.11;101312.19;4951519;28;20022;-83
2021/06/21 06:32:37;;;;;;;3.88;2.25;;;;;;;11.13;73.08;101337.47;4967997;28;20030;-83
2021/06/21 06:35:03;;;;;;;3.55;3.25;;;;;;;11.19;73.03;101336.81;4965793;28;20094;-85
2021/06/21 06:37:28;;;;;;;3.60;2.70;;;;;;;11.13;72.75;101324.03;4951934;28;20129;-84
2021/06/21 06:39:54;;;;;;;6.68;2.30;;;;;;;11.18;72.37;101332.44;4962267;28;20034;-85
2021/06/21 06:42:20;;;;;;;5.95;2.53;;;;;;;10.98;72.02;101295.09;4982415;28;20026;-83
2021/06/21 06:44:45;;;;;;;4.57;2.50;;;;;;;11.07;72.39;101312.06;4951523;28;20054;-84
2021/06/21 06:47:11;;;;;;;5.40;2.20;;;;;;;11.17;71.85;101315.47;4962569;28;20049;-83
2021/06/21 06:49:36;;;;;;;3.92;2.50;;;;;;;11.10;71.90;101310.91;4967672;28;20113;-83
2021/06/21 06:52:02;;;;;;;5.30;2.47;;;;;;;11.16;71.47;101329.06;4979260;28;20030;-84
2021/06/21 06:54:32;;;;;;;5.38;2.85;;;;;;;11.37;71.17;101356.34;4965161;28;20037;-84
2021/06/21 06:57:02;;;;;;;4.70;2.55;;;;;;;11.36;70.81;101354.69;4961598;28;20070;-83
2021/06/21 06:59:30;;;;;;;3.60;2.50;;;;;;;11.43;70.49;101363.78;4967124;28;20054;-84
2021/06/21 07:01:56;;;;;;;4.05;2.70;;;;;;;11.52;70.25;101374.56;4965123;28;20614;-83
2021/06/21 07:04:23;;;;;;;5.50;3.20;;;;;;;11.75;69.09;101372.91;4951502;28;20538;-84
2021/06/21 07:06:48;;;;;;;7.90;3.17;;;;;;;11.75;68.83;101364.81;4962942;28;20058;-83
2021/06/21 07:09:14;;;;;;;7.03;3.15;;;;;;;11.87;68.21;101374.25;4966032;28;20054;-84
2021/06/21 07:11:40;;;;;;;5.45;3.25;;;;;;;11.95;67.01;101356.41;4967989;28;20661;-84
2021/06/21 07:14:06;;;;;;;5.45;2.67;;;;;;;12.12;67.10;101385.03;4960738;28;20030;-84
2021/06/21 07:16:33;;;;;;;5.35;2.92;;;;;;;12.05;65.99;101379.47;4966675;28;20113;-84
2021/06/21 07:18:58;;;;;;;7.45;2.90;;;;;;;11.88;66.00;101377.78;4967012;28;20045;-84
2021/06/21 07:21:24;;;;;;;8.88;2.88;;;;;;;11.88;65.83;101367.00;4947173;28;20109;-84
2021/06/21 07:23:49;;;;;;;8.90;2.80;;;;;;;12.05;65.12;101390.25;4977157;28;20483;-79
2021/06/21 07:26:15;;;;;;;3.92;2.55;;;;;;;12.15;64.22;101394.63;4971064;28;20026;-84
2021/06/21 07:28:40;;;;;;;8.30;3.00;;;;;;;12.32;63.33;101391.72;4992110;28;20038;-83
2021/06/21 07:31:05;;;;;;;8.82;2.72;;;;;;;12.47;62.83;101388.31;4981016;28;20033;-83
2021/06/21 07:33:31;;;;;;;4.97;3.05;;;;;;;12.56;62.35;101376.47;4997150;28;20563;-84
2021/06/21 07:35:58;;;;;;;4.80;2.80;;;;;;;12.82;61.73;101387.00;4958597;28;20031;-84
2021/06/21 07:38:23;;;;;;;4.88;3.30;;;;;;;12.92;61.71;101376.00;4982574;28;20483;-83
2021/06/21 07:40:49;;;;;;;8.80;2.80;;;;;;;13.22;61.20;101395.09;4993764;28;20081;-83
2021/06/21 07:43:15;;;;;;;8.35;2.92;;;;;;;13.39;60.24;101399.41;4956069;28;20074;-83
2021/06/21 07:45:42;;;;;;;5.90;3.00;;;;;;;13.65;59.69;101409.84;4977613;28;20435;-83
2021/06/21 07:48:08;;;;;;;5.78;3.13;;;;;;;13.69;58.33;101397.69;4950883;28;20029;-84
2021/06/21 07:50:33;;;;;;;4.35;3.03;;;;;;;13.72;57.46;101401.88;4956046;28;20022;-84
2021/06/21 07:53:01;;;;;;;7.00;3.13;;;;;;;13.91;56.88;101409.50;4973118;28;20138;-83
2021/06/21 07:55:27;;;;;;;6.07;2.83;;;;;;;13.81;56.88;101417.00;4954450;28;20022;-83
2021/06/21 07:57:56;;;;;;;6.15;2.75;;;;;;;13.46;56.19;101367.13;4954043;28;20435;-84
2021/06/21 08:00:24;;;;;;;5.07;2.92;;;;;;;13.80;56.00;101408.06;4987743;28;20033;-83
2021/06/21 08:02:52;;;;;;;4.70;3.47;;;;;;;13.99;55.93;101409.41;4973274;28;20034;-83
2021/06/21 08:05:18;;;;;;;8.95;3.30;;;;;;;14.36;56.58;101423.94;4958283;28;20494;-84
2021/06/21 08:07:44;;;;;;;6.43;3.33;;;;;;;14.25;55.69;101424.41;4959180;28;20026;-83
2021/06/21 08:10:11;;;;;;;5.20;3.08;;;;;;;13.98;56.28;101431.25;4959104;28;20073;-83
2021/06/21 08:12:36;;;;;;;5.97;2.45;;;;;;;13.74;56.17;101429.56;4974828;28;20026;-83
2021/06/21 08:15:03;;;;;;;4.47;2.80;;;;;;;13.41;56.53;101414.41;4973733;28;20033;-83
2021/06/21 08:17:29;;;;;;;6.00;3.22;;;;;;;12.98;57.16;101388.81;4992125;28;20045;-83
2021/06/21 08:19:54;;;;;;;5.68;3.20;;;;;;;13.43;57.48;101443.13;4974271;28;20031;-83
2021/06/21 08:22:23;;;;;;;5.78;3.20;;;;;;;13.73;57.75;101446.78;4958614;28;20220;-78
2021/06/21 08:24:49;;;;;;;5.78;3.33;;;;;;;13.95;57.25;101443.25;4974590;28;20363;-79
2021/06/21 08:27:15;;;;;;;6.85;3.60;;;;;;;14.05;57.33;101446.56;4974760;28;20454;-79
2021/06/21 08:29:41;;;;;;;5.22;3.47;;;;;;;13.99;56.51;101438.31;4996280;28;20045;-79
2021/06/21 08:32:07;;;;;;;5.55;3.60;;;;;;;13.86;56.05;101428.09;4991084;28;20030;-78
2021/06/21 08:34:33;;;;;;;5.22;3.42;;;;;;;14.13;54.77;101451.06;4973440;28;20041;-78
2021/06/21 08:36:58;;;;;;;9.88;4.10;;;;;;;14.31;53.82;101437.19;4979158;28;20034;-78
2021/06/21 08:39:24;;;;;;;6.70;3.42;;;;;;;14.59;53.32;101450.16;4973420;28;20022;-76
2021/06/21 08:41:49;;;;;;;10.57;4.63;;;;;;;14.71;51.97;101444.09;4974412;28;20558;-78
2021/06/21 08:44:15;;;;;;;10.13;4.70;;;;;;;14.94;52.25;101448.56;4959457;28;20134;-78
2021/06/21 08:46:41;;;;;;;9.25;5.00;;;;;;;15.06;51.17;101448.94;4955751;28;20022;-78
2021/06/21 08:49:07;;;;;;;8.73;4.63;;;;;;;15.26;51.36;101446.47;4972918;28;20443;-79
2021/06/21 08:51:36;;;;;;;11.45;5.72;;;;;;;15.36;49.71;101447.84;4985207;28;20035;-77
2021/06/21 08:54:01;;;;;;;12.45;5.32;;;;;;;15.47;49.35;101441.06;4972895;28;20048;-79
2021/06/21 08:56:27;;;;;;;17.88;6.35;;;;;;;15.63;47.25;101450.84;4982313;28;20387;-77
2021/06/21 08:58:52;;;;;;;13.48;6.85;;;;;;;15.73;47.83;101443.25;4939250;28;20177;-78
2021/06/21 09:01:18;;;;;;;13.80;6.72;;;;;;;15.92;47.29;101440.94;4959582;28;20022;-79
2021/06/21 09:03:43;;;;;;;9.73;6.50;;;;;;;15.99;46.88;101439.13;4956256;28;20031;-78
2021/06/21 09:06:36;;;;;;;7.65;6.28;;;;;;;16.16;46.12;101451.38;4951153;28;20193;-78
2021/06/21 09:09:03;;;;;;;14.15;7.65;;;;;;;16.11;45.11;101458.44;4986562;28;20112;-79
2021/06/21 09:11:47;;;;;;;14.07;8.35;;;;;;;15.93;45.02;101458.88;4971362;28;20030;-77
2021/06/21 09:14:24;;;;;;;9.80;6.95;;;;;;;16.06;44.69;101467.16;4978809;28;20023;-77
2021/06/21 09:17:09;;;;;;;14.82;7.55;;;;;;;16.04;44.86;101458.38;4973432;28;20113;-78
2021/06/21 09:19:55;;;;;;;12.45;7.70;;;;;;;16.20;44.50;101449.97;4955162;28;20154;-79
2021/06/21 09:22:42;;;;;;;11.95;8.13;;;;;;;16.27;44.06;101458.16;4969913;28;20631;-78
2021/06/21 09:25:22;;;;;;;10.30;6.57;;;;;;;16.34;44.40;101450.06;4973664;28;20034;-78
2021/06/21 09:27:56;;;;;;;11.77;7.63;;;;;;;16.36;43.86;101453.44;4957952;28;20033;-78
2021/06/21 09:30:22;;;;;;;12.40;8.20;;;;;;;16.47;43.69;101452.88;4967283;28;20113;-78
2021/06/21 09:32:48;;;;;;;12.88;7.80;;;;;;;16.45;43.04;101455.78;4971697;28;20033;-77
2021/06/21 09:35:26;;;;;;;13.77;8.90;;;;;;;16.53;43.22;101457.50;4989723;28;20097;-79
2021/06/21 09:37:51;;;;;;;17.67;8.23;;;;;;;16.66;43.39;101465.75;4991232;28;20129;-79
2021/06/21 09:40:38;;;;;;;19.35;8.73;;;;;;;16.79;43.30;101458.75;4956758;28;20153;-78
2021/06/21 09:43:22;;;;;;;13.57;7.63;;;;;;;16.92;43.25;101450.69;4969987;28;20122;-80
2021/06/21 09:46:07;;;;;;;15.70;8.48;;;;;;;17.08;42.28;101436.75;4970835;28;20019;-78
2021/06/21 09:48:37;;;;;;;14.35;8.05;;;;;;;16.98;42.25;101452.59;4979600;28;20394;-79
2021/06/21 09:51:24;;;;;;;13.52;8.00;;;;;;;17.00;41.97;101452.41;4975549;28;20023;-78
2021/06/21 09:53:59;;;;;;;12.25;7.28;;;;;;;17.24;42.54;101451.88;4993815;28;20036;-79
2021/06/21 09:56:39;;;;;;;13.63;9.38;;;;;;;17.36;42.77;101452.16;4973621;28;20022;-75
2021/06/21 09:59:17;;;;;;;13.43;9.27;;;;;;;17.53;43.22;101453.44;4980134;28;20027;-76
2021/06/21 10:01:42;;;;;;;13.88;7.85;;;;;;;17.70;41.84;101464.81;4975325;28;20038;-76
2021/06/21 10:04:24;;;;;;;16.30;9.30;;;;;;;17.73;42.00;101458.06;4969073;28;20092;-76
2021/06/21 10:06:49;;;;;;;16.02;9.88;;;;;;;17.73;41.65;101471.69;4984284;28;20038;-75
2021/06/21 10:09:15;;;;;;;12.85;8.52;;;;;;;17.86;41.41;101466.31;4989071;28;20049;-76
2021/06/21 10:11:45;;;;;;;12.13;8.18;;;;;;;18.02;41.61;101467.81;4974792;28;20029;-75
2021/06/21 10:14:15;;;;;;;15.77;9.23;;;;;;;17.92;40.15;101473.66;4972464;28;20038;-76
2021/06/21 10:16:42;;;;;;;17.77;10.80;;;;;;;17.92;39.74;101460.06;4987610;28;20058;-76
2021/06/21 10:19:09;;;;;;;15.90;8.98;;;;;;;18.00;40.18;101467.19;4971351;28;20026;-76
2021/06/21 10:21:37;;;;;;;14.77;9.35;;;;;;;18.06;40.38;101462.78;4972181;28;20030;-76
2021/06/21 10:24:02;;;;;;;17.15;10.13;;;;;;;18.12;40.24;101467.38;4971288;28;20483;-76
2021/06/21 10:26:28;;;;;;;12.88;9.55;;;;;;;18.17;39.73;101467.59;4951405;28;20041;-75
2021/06/21 10:28:54;;;;;;;16.77;9.55;;;;;;;18.23;39.29;101466.75;4964710;28;20037;-76
2021/06/21 10:31:23;;;;;;;13.63;9.90;;;;;;;18.23;38.96;101467.63;4986893;28;20030;-76
2021/06/21 10:33:49;;;;;;;16.77;9.52;;;;;;;18.31;40.10;101469.28;4971092;28;20042;-76
2021/06/21 10:36:15;;;;;;;17.73;9.98;;;;;;;18.45;40.18;101478.28;4970502;28;20395;-75
2021/06/21 10:38:40;;;;;;;14.18;9.88;;;;;;;18.62;40.25;101481.41;4954624;28;20018;-76
2021/06/21 10:41:12;;;;;;;15.63;9.93;;;;;;;18.72;40.19;101465.47;4971017;28;20077;-76
2021/06/21 10:43:40;;;;;;;14.95;10.55;;;;;;;18.80;39.69;101478.88;4971183;28;20030;-76
2021/06/21 10:46:28;;;;;;;16.35;10.18;;;;;;;18.80;38.54;101475.34;4987151;28;20057;-77
2021/06/21 10:48:57;;;;;;;17.58;11.07;;;;;;;18.91;38.53;101477.41;4943335;28;20130;-77
2021/06/21 10:51:40;;;;;;;16.20;9.43;;;;;;;19.06;38.06;101475.25;4968934;28;20030;-77
2021/06/21 10:54:07;;;;;;;17.10;12.07;;;;;;;18.65;38.60;101470.06;4968614;28;20035;-77
2021/06/21 10:56:48;;;;;;;16.63;10.32;;;;;;;18.44;39.03;101472.00;4979734;28;20510;-77
2021/06/21 10:59:17;;;;;;;19.80;10.43;;;;;;;18.10;39.91;101474.91;4974552;28;20067;-77
2021/06/21 11:01:50;;;;;;;13.88;8.55;;;;;;;18.29;40.82;101473.28;4953020;28;20129;-76
2021/06/21 11:04:37;;;;;;;21.80;10.75;;;;;;;18.29;40.43;101471.38;4975255;28;20096;-76
2021/06/21 11:07:24;;;;;;;18.35;10.82;;;;;;;18.59;40.58;101479.94;4994357;28;20062;-77
2021/06/21 11:09:54;;;;;;;18.33;10.13;;;;;;;18.72;38.99;101481.81;4990595;28;20050;-77
2021/06/21 11:12:22;;;;;;;14.38;9.57;;;;;;;18.93;39.25;101482.66;4995032;28;20028;-77
2021/06/21 11:15:03;;;;;;;15.18;9.95;;;;;;;18.77;39.11;101473.03;4976520;28;20027;-77
2021/06/21 11:17:32;;;;;;;15.52;10.48;;;;;;;19.17;39.50;101473.75;4994613;28;20038;-76
2021/06/21 11:19:57;;;;;;;17.48;9.68;;;;;;;19.53;39.94;101473.19;4980114;28;20157;-77
2021/06/21 11:22:45;;;;;;;17.70;11.35;;;;;;;18.94;40.22;101478.84;4977127;28;20109;-77
2021/06/21 11:25:24;;;;;;;17.67;10.27;;;;;;;18.86;40.06;101480.75;4975529;28;20125;-77
2021/06/21 11:27:51;;;;;;;16.73;10.77;;;;;;;19.14;39.38;101481.53;4993300;28;20475;-77